Main page
METAR-TAF:

METAR-TAF

Airports :

Mendoza, Argentina

Governor Francisco Gabrielli International Airport

latitude: 32-50S, longitude: 068-47W, elevation: 705 m

Current weather observation

The report was made 56 minutes ago, at 18:00 UTC
Wind 18 kt from the Southeast
Temperature 19°C
Humidity 26%
Pressure 1012 hPa
Visibility 10 km or more
no clouds below 1500 m and no cumulonimbus

METAR: SAME 231800Z 14018KT CAVOK 19/M01 Q1012

Time: 15:56 (18:56 UTC)

Forecast

The report was made 1 hour and 56 minutes ago, at 17:00 UTC
Forecast valid from 23 at 18 UTC to 24 at 18 UTC
Wind 10 kt from the South
Visibility 10 km or more
Few clouds at a height of 3000 ft
Scattered clouds at a height of 7000 ft

TAF: SAME 231700Z 2318/2418 18010KT 9999 FEW030 SCT070 TX17/2320Z TN03/2410Z

Weather observations and forecasts of more than 4000 airports (METAR and TAF reports).

The available stations are represented by yellow and red dots on the map.

Hover mouse over dot to see the name of the station.

Then click to see weather observations and forecasts.

To change the map : click on the green buttons with a black cross to zoom in, on the green button with a dash to zoom out, or on the green arrows for adjacent maps.


METAR-TAF: